Hales Eddy, New York
Current Conditions -  °F | °C
As of 9:55 PM on Friday 21 Nov 2014 (Local Time) from KMSV Reporting Station
Clear Clear  
Wind Chill:   Ceiling: Unl
Heat Index: 16°   Visibility: 10mi
Dew Point:   Wind: 6mph
Humidity: 73%   Direction: 270°W
Pressure: 30.39"   Gusts: NA
Location:  41.9099°N, 75.1815°W
Report Text: KMSV 220255Z AUTO 27005KT 10SM CLR M09/M13 A3039 RMK AO1 54000
Loading
Personal Weather Stations






























Interactive Weather Map New forecast layout! Learn more

10-Day Weather Forecast

Advertisements
Track Severe Weather on mobile